createdAt,value
2018-09-11T00:01:52.745Z,13.40
2018-09-11T00:04:36.801Z,12.43
2018-09-11T00:07:17.994Z,12.17
2018-09-11T00:09:59.150Z,17.70
2018-09-11T00:12:40.792Z,12.17
2018-09-11T00:15:22.331Z,13.77
2018-09-11T00:18:09.463Z,15.03
2018-09-11T00:21:07.472Z,14.27
2018-09-11T00:23:48.105Z,13.67
2018-09-11T00:26:28.742Z,13.13
2018-09-11T00:29:13.085Z,14.00
2018-09-11T00:31:53.760Z,13.03
2018-09-11T00:34:43.029Z,12.83
2018-09-11T00:37:23.609Z,13.97
2018-09-11T00:40:09.364Z,14.63
2018-09-11T00:42:50.944Z,15.70
2018-09-11T00:45:32.052Z,13.00
2018-09-11T00:48:12.804Z,13.43
2018-09-11T00:50:53.534Z,11.97
2018-09-11T00:53:43.121Z,13.00
2018-09-11T00:56:24.220Z,12.13
2018-09-11T00:59:05.865Z,14.03
2018-09-11T01:01:46.741Z,13.97
2018-09-11T01:04:27.850Z,15.30
2018-09-11T01:07:11.166Z,15.70
2018-09-11T01:09:53.991Z,14.47
2018-09-11T01:12:34.773Z,19.60
2018-09-11T01:15:17.501Z,15.00
2018-09-11T01:17:58.049Z,15.97
2018-09-11T01:20:45.269Z,13.23
2018-09-11T01:23:25.973Z,16.47
2018-09-11T01:26:06.565Z,17.93
2018-09-11T01:28:48.796Z,16.00
2018-09-11T01:31:29.665Z,13.73
2018-09-11T01:34:15.821Z,13.33
2018-09-11T01:36:58.036Z,14.43
2018-09-11T01:42:24.982Z,14.30
2018-09-11T01:45:08.609Z,15.17
2018-09-11T01:47:50.442Z,15.80
2018-09-11T01:50:31.342Z,14.33
2018-09-11T01:53:17.572Z,14.53
2018-09-11T01:55:58.153Z,20.87
2018-09-11T01:58:38.946Z,18.80
2018-09-11T02:01:20.809Z,19.80
2018-09-11T02:04:01.484Z,17.37
2018-09-11T02:06:50.408Z,14.03
2018-09-11T02:09:30.865Z,15.77
2018-09-11T02:12:17.163Z,14.37
2018-09-11T02:14:57.873Z,14.50
2018-09-11T02:43:50.068Z,11.03
2018-09-11T02:46:30.472Z,9.83
2018-09-11T02:49:10.894Z,12.83
2018-09-11T02:51:51.809Z,11.47
2018-09-11T02:54:32.337Z,11.70
2018-09-11T02:57:12.841Z,10.60
2018-09-11T02:59:53.441Z,12.17
2018-09-11T03:02:33.979Z,12.00
2018-09-11T03:05:15.805Z,9.83
2018-09-11T03:07:56.493Z,11.67
2018-09-11T03:10:37.090Z,11.70
2018-09-11T03:13:19.898Z,9.50
2018-09-11T03:16:00.479Z,9.90
2018-09-11T03:18:41.045Z,12.33
2018-09-11T03:21:21.750Z,10.77
2018-09-11T03:24:02.280Z,11.60
2018-09-11T03:26:42.825Z,12.73
2018-09-11T03:29:23.369Z,11.67
2018-09-11T03:32:03.977Z,9.97
2018-09-11T03:34:45.810Z,10.43
2018-09-11T03:37:26.440Z,10.47
2018-09-11T03:40:07.045Z,10.77
2018-09-11T03:42:49.869Z,10.23
2018-09-11T03:45:30.412Z,12.10
2018-09-11T03:48:10.957Z,12.07
2018-09-11T03:50:52.164Z,11.63
2018-09-11T03:53:32.772Z,13.53
2018-09-11T03:56:13.316Z,15.17
2018-09-11T03:58:55.578Z,11.43
2018-09-11T04:01:36.150Z,10.40
2018-09-11T04:04:21.593Z,10.57
2018-09-11T04:07:02.154Z,11.80
2018-09-11T04:09:42.691Z,11.93
2018-09-11T04:12:23.400Z,11.33
2018-09-11T04:15:03.945Z,12.53
2018-09-11T04:17:45.869Z,11.57
2018-09-11T04:20:26.549Z,12.40
2018-09-11T04:23:08.033Z,12.57
2018-09-11T04:25:50.062Z,12.03
2018-09-11T04:28:30.864Z,11.33
2018-09-11T04:31:11.460Z,10.27
2018-09-11T04:33:51.925Z,10.27
2018-09-11T04:36:32.501Z,13.80
2018-09-11T04:39:12.883Z,11.23
2018-09-11T04:41:53.457Z,11.63
2018-09-11T04:44:34.001Z,11.20
2018-09-11T04:47:15.878Z,11.67
2018-09-11T04:49:56.461Z,11.93
2018-09-11T04:52:37.743Z,11.40
2018-09-11T04:55:20.094Z,12.97
2018-09-11T04:58:00.652Z,12.27
2018-09-11T05:00:41.200Z,13.53
2018-09-11T05:03:22.470Z,14.77
2018-09-11T05:06:02.945Z,13.63
2018-09-11T05:08:43.493Z,15.33
2018-09-11T05:11:24.392Z,14.60
2018-09-11T05:14:04.952Z,13.73
2018-09-11T05:16:47.001Z,13.87
2018-09-11T05:19:27.450Z,15.97
2018-09-11T05:22:08.041Z,15.33
2018-09-11T05:24:50.525Z,11.20
2018-09-11T05:27:31.055Z,12.83
2018-09-11T05:30:12.179Z,13.03
2018-09-11T05:32:53.653Z,11.90
2018-09-11T05:35:34.793Z,11.60
2018-09-11T05:38:17.072Z,15.83
2018-09-11T05:40:57.473Z,12.97
2018-09-11T05:43:41.890Z,13.43
2018-09-11T05:46:22.381Z,12.77
2018-09-11T05:49:02.940Z,13.63
2018-09-11T05:51:43.528Z,9.10
2018-09-11T05:54:24.105Z,8.93
2018-09-11T05:57:05.525Z,10.77
2018-09-11T05:59:50.563Z,11.23
2018-09-11T06:02:31.585Z,10.07
2018-09-11T06:05:12.059Z,9.83
2018-09-11T06:07:52.955Z,9.53
2018-09-11T06:10:34.137Z,11.03
2018-09-11T06:13:16.044Z,11.03
2018-09-11T06:15:56.601Z,10.27
2018-09-11T06:18:37.060Z,11.17
2018-09-11T06:21:22.092Z,10.20
2018-09-11T06:24:02.598Z,13.43
2018-09-11T06:26:50.381Z,12.13
2018-09-11T06:29:30.918Z,12.00
2018-09-11T06:32:11.569Z,10.27
2018-09-11T06:34:52.038Z,9.43
2018-09-11T06:37:32.612Z,10.53
2018-09-11T06:40:13.385Z,6.80
2018-09-11T06:42:53.981Z,7.70
2018-09-11T06:45:34.819Z,7.83
2018-09-11T06:48:17.941Z,6.97
2018-09-11T06:50:58.607Z,6.53
2018-09-11T06:53:39.249Z,9.63
2018-09-11T06:56:22.126Z,8.47
2018-09-11T06:59:02.824Z,5.17
2018-09-11T07:01:43.617Z,5.90
2018-09-11T07:04:24.334Z,8.73
2018-09-11T07:07:05.980Z,5.17
2018-09-11T07:09:49.410Z,6.57
2018-09-11T07:12:29.990Z,4.80
2018-09-11T07:15:11.453Z,6.17
2018-09-11T07:17:52.058Z,4.73
2018-09-11T07:20:32.725Z,5.27
2018-09-11T07:23:13.191Z,5.13
2018-09-11T07:25:53.826Z,9.93
2018-09-11T07:28:35.427Z,6.70
2018-09-11T07:31:17.430Z,6.50
2018-09-11T07:33:57.956Z,5.97
2018-09-11T07:36:38.613Z,8.83
2018-09-11T07:39:20.888Z,7.10
2018-09-11T07:42:01.395Z,7.10
2018-09-11T07:44:42.041Z,5.73
2018-09-11T07:47:22.665Z,6.37
2018-09-11T07:50:03.280Z,6.53
2018-09-11T07:52:43.933Z,6.67
2018-09-11T07:55:24.811Z,4.87
2018-09-11T07:58:05.432Z,5.93
2018-09-11T08:00:47.388Z,7.83
2018-09-11T08:03:27.925Z,6.33
2018-09-11T08:06:08.430Z,7.47
2018-09-11T08:08:50.694Z,5.63
2018-09-11T08:11:31.221Z,6.27
2018-09-11T08:14:11.653Z,5.87
2018-09-11T08:16:52.224Z,6.33
2018-09-11T08:19:32.817Z,5.20
2018-09-11T08:22:13.364Z,5.50
2018-09-11T08:24:54.866Z,6.13
2018-09-11T08:27:37.367Z,5.27
2018-09-11T08:30:20.240Z,8.20
2018-09-11T08:33:01.753Z,4.93
2018-09-11T08:35:42.225Z,5.80
2018-09-11T08:38:23.021Z,7.23
2018-09-11T08:41:03.655Z,4.83
2018-09-11T08:43:44.388Z,4.73
2018-09-11T08:46:25.927Z,4.73
2018-09-11T08:49:06.775Z,4.53
2018-09-11T08:51:51.412Z,5.33
2018-09-11T08:54:31.881Z,4.10
2018-09-11T08:57:12.335Z,5.33
2018-09-11T08:59:52.893Z,4.57
2018-09-11T09:02:33.338Z,6.57
2018-09-11T09:05:13.955Z,4.37
2018-09-11T09:07:54.473Z,8.80
2018-09-11T09:10:35.075Z,6.33
2018-09-11T09:13:17.159Z,6.17
2018-09-11T09:15:57.733Z,6.70
2018-09-11T09:18:38.141Z,5.30
2018-09-11T09:21:20.678Z,6.27
2018-09-11T09:24:01.272Z,4.80
2018-09-11T09:26:41.814Z,4.70
2018-09-11T09:29:22.361Z,5.70
2018-09-11T09:32:03.079Z,5.80
2018-09-11T09:34:43.716Z,6.87
2018-09-11T09:37:24.337Z,5.13
2018-09-11T09:40:07.363Z,4.77
2018-09-11T09:42:50.302Z,6.07
2018-09-11T09:45:30.921Z,4.70
2018-09-11T09:48:12.867Z,5.70
2018-09-11T09:50:53.542Z,6.00
2018-09-11T09:53:34.205Z,9.80
2018-09-11T09:56:16.110Z,5.20
2018-09-11T09:58:56.604Z,8.30
2018-09-11T10:01:44.409Z,7.77
2018-09-11T10:04:24.822Z,5.33
2018-09-11T10:07:05.297Z,6.70
2018-09-11T10:09:47.246Z,6.53
2018-09-11T10:12:27.864Z,6.87
2018-09-11T10:15:09.540Z,5.77
2018-09-11T10:17:51.308Z,5.50
2018-09-11T10:20:32.197Z,6.43
2018-09-11T10:23:12.789Z,5.13
2018-09-11T10:25:53.253Z,7.03
2018-09-11T10:28:34.530Z,7.37
2018-09-11T10:31:16.372Z,9.67
2018-09-11T10:33:56.981Z,11.73
2018-09-11T10:36:38.454Z,7.47
2018-09-11T10:39:20.925Z,10.10
2018-09-11T10:42:01.566Z,10.17
2018-09-11T10:44:41.986Z,7.60
2018-09-11T10:47:25.325Z,11.17
2018-09-11T10:50:05.991Z,9.47
2018-09-11T10:52:49.333Z,8.23
2018-09-11T10:55:31.202Z,7.77
2018-09-11T10:58:11.665Z,7.70
2018-09-11T11:00:52.188Z,7.83
2018-09-11T11:03:32.589Z,8.70
2018-09-11T11:06:13.131Z,9.53
2018-09-11T11:08:53.561Z,9.67
2018-09-11T11:11:33.994Z,8.93
2018-09-11T11:14:15.904Z,7.40
2018-09-11T11:16:56.444Z,8.93
2018-09-11T11:19:36.997Z,7.83
2018-09-11T11:22:20.780Z,8.17
2018-09-11T11:25:02.196Z,9.80
2018-09-11T11:27:42.865Z,8.93
2018-09-11T11:30:24.796Z,9.73
2018-09-11T11:33:05.420Z,6.23
2018-09-11T11:35:49.358Z,7.50
2018-09-11T11:38:29.935Z,9.13
2018-09-11T11:41:10.325Z,15.80
2018-09-11T11:43:51.953Z,10.63
2018-09-11T11:46:32.657Z,8.00
2018-09-11T11:49:13.249Z,6.27
2018-09-11T11:51:53.875Z,5.53
2018-09-11T11:54:34.452Z,5.80
2018-09-11T11:57:15.936Z,5.63
2018-09-11T11:59:56.460Z,7.17
2018-09-11T12:02:37.059Z,4.10
2018-09-11T12:05:20.049Z,4.43
2018-09-11T12:08:00.570Z,4.57
2018-09-11T12:10:41.099Z,5.03
2018-09-11T12:13:21.788Z,4.97
2018-09-11T12:16:02.291Z,7.27
2018-09-11T12:18:42.868Z,7.40
2018-09-11T12:21:23.177Z,5.97
2018-09-11T12:24:03.939Z,7.47
2018-09-11T12:26:46.332Z,4.43
2018-09-11T12:29:26.817Z,6.50
2018-09-11T12:32:07.211Z,5.67
2018-09-11T12:34:50.151Z,5.37
2018-09-11T12:37:30.535Z,4.13
2018-09-11T12:40:11.253Z,4.57
2018-09-11T12:42:51.849Z,7.97
2018-09-11T12:45:33.089Z,3.07
2018-09-11T12:48:13.972Z,3.60
2018-09-11T12:54:09.086Z,2.77
2018-09-11T12:56:52.652Z,3.33
2018-09-11T12:59:34.684Z,3.27
2018-09-11T13:02:15.348Z,4.73
2018-09-11T13:04:59.134Z,6.00
2018-09-11T13:07:41.409Z,2.93
2018-09-11T13:10:24.178Z,3.07
2018-09-11T13:13:05.762Z,4.17
2018-09-11T13:15:51.818Z,3.67
2018-09-11T13:18:32.601Z,4.20
2018-09-11T13:21:13.444Z,5.47
2018-09-11T13:23:54.239Z,5.20
2018-09-11T13:26:34.993Z,4.80
2018-09-11T13:29:16.173Z,3.37
2018-09-11T13:31:56.872Z,6.00
2018-09-11T13:34:37.564Z,5.13
2018-09-11T13:37:19.567Z,4.10
2018-09-11T13:40:00.259Z,3.37
2018-09-11T13:42:43.112Z,5.23
2018-09-11T13:45:24.710Z,4.63
2018-09-11T13:48:33.481Z,8.67
2018-09-11T13:51:16.385Z,5.10
2018-09-11T13:54:00.626Z,4.50
2018-09-11T13:56:43.658Z,4.60
2018-09-11T13:59:27.508Z,4.13
2018-09-11T14:02:12.326Z,5.37
2018-09-11T14:04:56.292Z,5.10
2018-09-11T14:07:39.159Z,4.63
2018-09-11T14:10:24.348Z,6.93
2018-09-11T14:13:18.963Z,5.00
2018-09-11T14:16:12.413Z,4.57
2018-09-11T14:18:56.202Z,7.47
2018-09-11T14:21:39.116Z,4.57
2018-09-11T14:24:24.055Z,7.07
2018-09-11T14:27:08.203Z,4.80
2018-09-11T14:29:54.434Z,4.47
2018-09-11T14:32:37.909Z,4.33
2018-09-11T14:35:22.731Z,10.67
2018-09-11T14:38:06.396Z,4.77
2018-09-11T14:40:50.478Z,4.67
2018-09-11T14:43:34.521Z,4.40
2018-09-11T14:46:17.361Z,11.03
2018-09-11T14:49:00.304Z,4.33
2018-09-11T14:51:43.710Z,4.83
2018-09-11T14:54:28.620Z,4.13
2018-09-11T14:57:11.436Z,7.13
2018-09-11T14:59:56.121Z,5.10
2018-09-11T15:02:39.207Z,6.93
2018-09-11T15:05:24.074Z,13.37
2018-09-11T15:08:06.870Z,9.73
2018-09-11T15:10:50.956Z,7.07
2018-09-11T15:13:33.723Z,6.43
2018-09-11T15:16:16.561Z,4.87
2018-09-11T15:18:59.750Z,4.13
2018-09-11T15:21:42.575Z,4.60
2018-09-11T15:24:26.423Z,4.50
2018-09-11T15:27:09.688Z,4.23
2018-09-11T15:29:57.686Z,6.80
2018-09-11T15:32:40.669Z,5.53
2018-09-11T15:35:25.542Z,7.63
2018-09-11T15:38:08.980Z,4.03
2018-09-11T15:40:53.097Z,5.83
2018-09-11T15:43:35.768Z,5.47
2018-09-11T15:46:18.422Z,4.23
2018-09-11T15:49:01.271Z,6.03
2018-09-11T15:51:44.031Z,5.67
2018-09-11T15:54:27.629Z,4.83
2018-09-11T15:57:10.564Z,8.47
2018-09-11T16:00:01.168Z,6.20
2018-09-11T16:02:44.263Z,6.90
2018-09-11T16:05:28.167Z,5.80
2018-09-11T16:08:18.600Z,7.90
2018-09-11T16:11:02.120Z,6.87
2018-09-11T16:13:44.949Z,7.40
2018-09-11T16:16:28.170Z,7.07
2018-09-11T16:19:11.319Z,8.37
2018-09-11T16:21:56.075Z,7.77
2018-09-11T16:24:39.158Z,12.13
2018-09-11T16:27:26.977Z,9.00
2018-09-11T16:30:10.106Z,9.93
2018-09-11T16:32:54.800Z,11.33
2018-09-11T16:35:37.562Z,8.87
2018-09-11T16:38:23.585Z,10.00
2018-09-11T16:41:07.159Z,12.40
2018-09-11T16:43:50.632Z,10.37
2018-09-11T16:46:33.461Z,11.67
2018-09-11T16:49:16.167Z,17.37
2018-09-11T16:51:58.890Z,15.77
2018-09-11T16:54:41.637Z,16.23
2018-09-11T16:57:26.569Z,16.33
2018-09-11T17:00:09.419Z,15.03
2018-09-11T17:02:54.391Z,11.20
2018-09-11T17:05:37.125Z,9.53
2018-09-11T17:08:19.340Z,12.20
2018-09-11T17:14:21.257Z,11.18
2018-09-11T17:17:02.030Z,10.53
2018-09-11T17:19:42.678Z,11.37
2018-09-11T17:22:25.062Z,16.27
2018-09-11T17:25:05.521Z,17.83
2018-09-11T17:27:46.080Z,13.03
2018-09-11T17:30:26.858Z,14.27
2018-09-11T17:33:07.380Z,14.97
2018-09-11T17:35:52.187Z,9.53
2018-09-11T17:38:32.563Z,16.17
2018-09-11T17:41:13.164Z,12.00
2018-09-11T17:43:56.057Z,13.20
2018-09-11T17:46:36.980Z,12.10
2018-09-11T17:49:18.727Z,13.10
2018-09-11T17:51:59.216Z,17.37
2018-09-11T17:54:39.812Z,11.20
2018-09-11T17:57:27.407Z,18.73
2018-09-11T18:00:08.921Z,11.50
2018-09-11T18:02:49.437Z,13.60
2018-09-11T18:05:30.549Z,24.03
2018-09-11T18:08:11.838Z,14.63
2018-09-11T18:10:56.110Z,15.73
2018-09-11T18:13:37.081Z,13.17
2018-09-11T18:16:17.841Z,16.17
2018-09-11T18:18:58.518Z,18.10
2018-09-11T18:21:40.408Z,14.73
2018-09-11T18:24:21.892Z,13.17
2018-09-11T18:27:02.493Z,14.13
2018-09-11T18:29:43.268Z,12.47
2018-09-11T18:32:26.344Z,11.20
2018-09-11T18:35:06.925Z,14.60
2018-09-11T18:37:54.819Z,15.90
2018-09-11T18:40:35.925Z,13.80
2018-09-11T18:43:17.023Z,11.93
2018-09-11T18:45:59.026Z,13.30
2018-09-11T18:48:39.629Z,13.17
2018-09-11T18:51:22.897Z,14.50
2018-09-11T18:54:03.543Z,12.00
2018-09-11T18:56:44.117Z,14.13
2018-09-11T18:59:26.679Z,18.47
2018-09-11T19:02:08.314Z,11.70
2018-09-11T19:04:48.992Z,12.97
2018-09-11T19:07:29.806Z,11.83
2018-09-11T19:10:10.542Z,11.57
2018-09-11T19:13:05.082Z,15.53
2018-09-11T19:15:45.749Z,13.17
2018-09-11T19:18:27.638Z,13.50
2018-09-11T19:21:08.139Z,13.77
2018-09-11T19:23:48.822Z,16.37
2018-09-11T19:26:29.470Z,15.53
2018-09-11T19:29:10.825Z,17.40
2018-09-11T19:31:52.477Z,15.33
2018-09-11T19:34:32.973Z,16.27
2018-09-11T19:37:13.644Z,15.23
2018-09-11T19:39:56.336Z,19.50
2018-09-11T19:42:37.075Z,14.87
2018-09-11T19:45:17.698Z,15.57
2018-09-11T19:47:58.290Z,17.60
2018-09-11T19:50:39.022Z,18.33
2018-09-11T19:53:19.372Z,18.63
2018-09-11T19:56:00.345Z,14.43
2018-09-11T19:58:41.039Z,18.43
2018-09-11T20:01:22.467Z,17.63
2018-09-11T20:04:03.014Z,15.13
2018-09-11T20:06:43.658Z,15.50
2018-09-11T20:09:28.118Z,19.60
2018-09-11T20:12:08.915Z,18.93
2018-09-11T20:14:49.589Z,19.43
2018-09-11T20:17:30.232Z,16.17
2018-09-11T20:20:11.139Z,17.73
2018-09-11T20:22:52.777Z,20.00
2018-09-11T20:25:41.411Z,18.23
2018-09-11T20:28:22.571Z,18.80
2018-09-11T20:31:03.102Z,19.67
2018-09-11T20:33:44.138Z,19.83
2018-09-11T20:36:26.470Z,20.33
2018-09-11T20:39:10.421Z,22.10
2018-09-11T20:41:50.878Z,19.27
2018-09-11T20:44:31.453Z,15.57
2018-09-11T20:47:12.105Z,18.77
2018-09-11T20:49:55.475Z,17.67
2018-09-11T20:52:36.027Z,15.07
2018-09-11T20:55:17.740Z,17.90
2018-09-11T20:57:58.421Z,17.60
2018-09-11T21:00:39.001Z,18.00
2018-09-11T21:03:19.645Z,17.13
2018-09-11T21:06:00.456Z,14.73
2018-09-11T21:08:41.097Z,13.57
2018-09-11T21:11:22.900Z,18.33
2018-09-11T21:14:03.347Z,14.20
2018-09-11T21:16:43.956Z,16.87
2018-09-11T21:19:27.899Z,16.40
2018-09-11T21:22:08.463Z,17.43
2018-09-11T21:24:48.948Z,17.43
2018-09-11T21:27:30.543Z,12.83
2018-09-11T21:30:11.116Z,15.67
2018-09-11T21:32:51.721Z,15.03
2018-09-11T21:35:32.207Z,12.27
2018-09-11T21:38:12.849Z,13.87
2018-09-11T21:40:54.404Z,14.87
2018-09-11T21:43:35.778Z,12.07
2018-09-11T21:46:16.418Z,16.90
2018-09-11T21:48:57.833Z,16.33
2018-09-11T21:51:39.397Z,12.83
2018-09-11T21:54:19.901Z,13.33
2018-09-11T21:57:00.401Z,13.30
2018-09-11T21:59:40.894Z,14.23
2018-09-11T22:02:21.343Z,11.77
2018-09-11T22:05:01.884Z,14.37
2018-09-11T22:07:42.472Z,12.20
2018-09-11T22:10:27.008Z,12.93
2018-09-11T22:13:07.492Z,12.80
